In Rescue
 
Open Full Screen Window  High Contrast Mode
October 19, 2020 6:29 PM CDT
Present Weather: Light Snow
Weather Information
Wind Direction
  ---
Wind Speed
  00 kt (0 mph)
Wind Gust
  00 kt (0 mph)
Altimeter
30.25 in
Visibility
5 SM
Temperature
01° C
34° F
Dewpoint
00° C
32° F
Humidity
93%
1hr Rain Fall
00.00 in.
24hr Rain Fall
00.03 in.
Sky Condition
Missing
MVFR

METAR KMGG 192329Z AUTO 00000KT 5SM -SN 01/00 A3025 RMK AO2 T00050000

FAA Disclaimer: The data displayed is for advisory purposes only and is not to be used for flight planning or operations.
Missing Cloud Data